createdAt,value
2017-12-26T00:00:01.114Z,0
2017-12-26T00:01:02.512Z,0
2017-12-26T00:02:03.998Z,0
2017-12-26T00:03:05.400Z,0
2017-12-26T00:04:06.903Z,0
2017-12-26T00:05:08.287Z,0
2017-12-26T00:06:09.763Z,0
2017-12-26T00:07:11.189Z,0
2017-12-26T00:08:12.638Z,0
2017-12-26T00:09:14.039Z,0
2017-12-26T00:10:15.440Z,0
2017-12-26T00:11:16.857Z,0
2017-12-26T00:12:18.260Z,0
2017-12-26T00:13:19.707Z,0
2017-12-26T00:14:21.206Z,0
2017-12-26T00:15:22.617Z,0
2017-12-26T00:16:24.035Z,0
2017-12-26T00:17:25.501Z,0
2017-12-26T00:18:26.904Z,0
2017-12-26T00:19:28.314Z,0
2017-12-26T00:20:29.844Z,0
2017-12-26T00:21:31.241Z,0
2017-12-26T00:22:32.697Z,0
2017-12-26T00:23:34.097Z,0
2017-12-26T00:24:35.581Z,0
2017-12-26T00:25:36.984Z,0
2017-12-26T00:26:38.390Z,0
2017-12-26T00:27:39.903Z,0
2017-12-26T00:28:41.301Z,0
2017-12-26T00:29:42.701Z,0
2017-12-26T00:30:44.123Z,0
2017-12-26T00:31:45.529Z,0
2017-12-26T00:32:47.015Z,0
2017-12-26T00:33:48.421Z,0
2017-12-26T00:34:49.818Z,0
2017-12-26T00:35:51.328Z,0
2017-12-26T00:36:52.727Z,0
2017-12-26T00:37:54.126Z,0
2017-12-26T00:38:55.539Z,0
2017-12-26T00:39:56.929Z,0
2017-12-26T00:40:58.341Z,0
2017-12-26T00:41:59.758Z,0
2017-12-26T00:43:01.156Z,0
2017-12-26T00:44:02.595Z,0
2017-12-26T00:45:04.094Z,0
2017-12-26T00:46:05.498Z,0
2017-12-26T00:47:06.901Z,0
2017-12-26T00:48:08.418Z,0
2017-12-26T00:49:09.818Z,0
2017-12-26T00:50:11.216Z,0
2017-12-26T00:51:12.726Z,0
2017-12-26T00:52:14.131Z,0
2017-12-26T00:53:15.528Z,0
2017-12-26T00:54:16.945Z,0
2017-12-26T00:55:18.354Z,0
2017-12-26T00:56:19.830Z,0
2017-12-26T00:57:21.232Z,0
2017-12-26T00:58:22.709Z,0
2017-12-26T00:59:24.108Z,0
2017-12-26T01:00:25.588Z,0
2017-12-26T01:01:26.991Z,0
2017-12-26T01:02:28.468Z,0
2017-12-26T01:03:29.872Z,0
2017-12-26T01:04:31.347Z,0
2017-12-26T01:05:32.753Z,0
2017-12-26T01:06:34.228Z,0
2017-12-26T01:07:35.626Z,0
2017-12-26T01:08:37.106Z,0
2017-12-26T01:09:38.506Z,0
2017-12-26T01:10:39.939Z,0
2017-12-26T01:11:41.425Z,0
2017-12-26T01:12:42.860Z,0
2017-12-26T01:13:44.257Z,0
2017-12-26T01:14:45.764Z,0
2017-12-26T01:15:47.159Z,0
2017-12-26T01:16:48.563Z,0
2017-12-26T01:17:50.074Z,0
2017-12-26T01:18:51.483Z,0
2017-12-26T01:19:52.880Z,0
2017-12-26T01:20:54.390Z,0
2017-12-26T01:21:55.791Z,0
2017-12-26T01:22:57.271Z,0
2017-12-26T01:23:58.670Z,0
2017-12-26T01:25:00.148Z,0
2017-12-26T01:26:01.559Z,0
2017-12-26T01:27:03.033Z,0
2017-12-26T01:28:04.423Z,0
2017-12-26T01:29:05.908Z,0
2017-12-26T01:30:07.317Z,0
2017-12-26T01:31:08.797Z,0
2017-12-26T01:32:10.222Z,0
2017-12-26T01:33:11.740Z,0
2017-12-26T01:34:13.147Z,0
2017-12-26T01:35:14.592Z,0
2017-12-26T01:36:16.021Z,0
2017-12-26T01:37:17.475Z,0
2017-12-26T01:38:18.882Z,0
2017-12-26T01:39:20.317Z,0
2017-12-26T01:40:21.714Z,0
2017-12-26T01:41:23.210Z,0
2017-12-26T01:42:24.620Z,0
2017-12-26T01:43:26.109Z,0
2017-12-26T01:44:27.494Z,0
2017-12-26T01:45:28.899Z,0
2017-12-26T01:46:30.416Z,0
2017-12-26T01:47:31.815Z,0
2017-12-26T01:48:33.228Z,0
2017-12-26T01:49:34.749Z,0
2017-12-26T01:50:36.127Z,0
2017-12-26T01:51:37.527Z,0
2017-12-26T01:52:38.940Z,0
2017-12-26T01:53:40.356Z,0
2017-12-26T01:54:41.754Z,0
2017-12-26T01:55:43.263Z,0
2017-12-26T01:56:44.661Z,0
2017-12-26T01:57:46.148Z,0
2017-12-26T01:58:47.571Z,0
2017-12-26T01:59:49.030Z,0
2017-12-26T02:00:50.441Z,0
2017-12-26T02:01:51.908Z,0
2017-12-26T02:02:53.297Z,0
2017-12-26T02:03:54.788Z,0
2017-12-26T02:04:56.187Z,0
2017-12-26T02:05:57.584Z,0
2017-12-26T02:06:59.105Z,0
2017-12-26T02:08:00.515Z,0
2017-12-26T02:09:01.932Z,0
2017-12-26T02:10:03.328Z,0
2017-12-26T02:11:04.725Z,0
2017-12-26T02:12:06.208Z,0
2017-12-26T02:13:07.606Z,0
2017-12-26T02:14:09.096Z,0
2017-12-26T02:15:10.504Z,0
2017-12-26T02:16:11.901Z,0
2017-12-26T02:17:13.417Z,0
2017-12-26T02:18:14.825Z,0
2017-12-26T02:19:16.230Z,0
2017-12-26T02:20:17.731Z,0
2017-12-26T02:21:19.204Z,0
2017-12-26T02:22:20.712Z,0
2017-12-26T02:23:22.111Z,0
2017-12-26T02:24:23.594Z,0
2017-12-26T02:25:25.014Z,0
2017-12-26T02:26:26.429Z,0
2017-12-26T02:27:27.958Z,0
2017-12-26T02:28:29.348Z,0
2017-12-26T02:29:30.774Z,0
2017-12-26T02:30:32.240Z,0
2017-12-26T02:31:33.639Z,0
2017-12-26T02:32:35.038Z,0
2017-12-26T02:33:36.468Z,0
2017-12-26T02:34:37.868Z,0
2017-12-26T02:35:39.266Z,0
2017-12-26T02:36:40.775Z,0
2017-12-26T02:37:42.172Z,0
2017-12-26T02:38:43.655Z,0
2017-12-26T02:39:45.052Z,0
2017-12-26T02:40:46.537Z,0
2017-12-26T02:41:47.933Z,0
2017-12-26T02:42:49.351Z,0
2017-12-26T02:43:50.860Z,0
2017-12-26T02:44:52.259Z,0
2017-12-26T02:45:53.653Z,0
2017-12-26T02:46:55.077Z,0
2017-12-26T02:47:56.476Z,0
2017-12-26T02:48:57.973Z,0
2017-12-26T02:49:59.374Z,0
2017-12-26T02:51:00.838Z,0
2017-12-26T02:52:02.234Z,0
2017-12-26T02:53:03.635Z,0
2017-12-26T02:54:05.064Z,0
2017-12-26T02:55:06.457Z,0
2017-12-26T02:56:07.872Z,0
2017-12-26T02:57:09.415Z,0
2017-12-26T02:58:11.092Z,0
2017-12-26T02:59:12.554Z,0
2017-12-26T03:00:14.021Z,0
2017-12-26T03:01:15.415Z,0
2017-12-26T03:02:16.900Z,0
2017-12-26T03:03:18.295Z,0
2017-12-26T03:04:19.767Z,0
2017-12-26T03:05:21.165Z,0
2017-12-26T03:06:22.573Z,0
2017-12-26T03:07:23.985Z,0
2017-12-26T03:08:25.383Z,0
2017-12-26T03:09:26.782Z,0
2017-12-26T03:10:28.205Z,0
2017-12-26T03:11:29.604Z,0
2017-12-26T03:12:31.008Z,0
2017-12-26T03:13:32.423Z,0
2017-12-26T03:14:33.820Z,0
2017-12-26T03:15:35.304Z,0
2017-12-26T03:16:36.702Z,0
2017-12-26T03:17:38.103Z,0
2017-12-26T03:18:39.522Z,0
2017-12-26T03:19:40.930Z,0
2017-12-26T03:20:42.327Z,0
2017-12-26T03:21:43.741Z,0
2017-12-26T03:22:45.139Z,0
2017-12-26T03:23:46.621Z,0
2017-12-26T03:24:48.027Z,0
2017-12-26T03:25:49.508Z,0
2017-12-26T03:26:50.907Z,0
2017-12-26T03:27:52.304Z,0
2017-12-26T03:28:53.726Z,0
2017-12-26T03:29:55.136Z,0
2017-12-26T03:30:56.534Z,0
2017-12-26T03:31:58.046Z,0
2017-12-26T03:32:59.440Z,0
2017-12-26T03:34:00.924Z,0
2017-12-26T03:35:02.321Z,0
2017-12-26T03:36:03.820Z,0
2017-12-26T03:37:05.215Z,0
2017-12-26T03:38:06.614Z,0
2017-12-26T03:39:08.514Z,0
2017-12-26T03:40:09.917Z,0
2017-12-26T03:41:11.327Z,0
2017-12-26T03:42:12.755Z,0
2017-12-26T03:43:14.150Z,0
2017-12-26T03:44:15.549Z,0
2017-12-26T03:45:17.075Z,0
2017-12-26T03:46:18.474Z,0
2017-12-26T03:47:19.875Z,0
2017-12-26T03:48:21.294Z,0
2017-12-26T03:49:23.673Z,0
2017-12-26T03:50:25.106Z,0
2017-12-26T03:51:26.502Z,0
2017-12-26T03:52:27.898Z,0
2017-12-26T03:53:29.331Z,0
2017-12-26T03:54:30.743Z,0
2017-12-26T03:55:32.162Z,0
2017-12-26T03:56:33.635Z,0
2017-12-26T03:57:35.040Z,0
2017-12-26T03:58:36.515Z,0
2017-12-26T03:59:37.912Z,0
2017-12-26T04:00:39.398Z,0
2017-12-26T04:01:40.801Z,0
2017-12-26T04:02:42.200Z,0
2017-12-26T04:03:43.718Z,0
2017-12-26T04:04:45.118Z,0
2017-12-26T04:05:46.517Z,0
2017-12-26T04:06:48.042Z,0
2017-12-26T04:07:49.441Z,0
2017-12-26T04:08:50.946Z,0
2017-12-26T04:09:52.348Z,0
2017-12-26T04:10:54.021Z,0
2017-12-26T04:11:55.424Z,0
2017-12-26T04:12:56.815Z,0
2017-12-26T04:13:58.332Z,0
2017-12-26T04:14:59.725Z,0
2017-12-26T04:16:01.162Z,0
2017-12-26T04:17:02.655Z,0
2017-12-26T04:18:04.047Z,0
2017-12-26T04:19:05.447Z,0
2017-12-26T04:20:06.974Z,0
2017-12-26T04:21:08.364Z,0
2017-12-26T04:22:09.780Z,0
2017-12-26T04:23:11.291Z,0
2017-12-26T04:24:12.692Z,0
2017-12-26T04:25:14.174Z,0
2017-12-26T04:26:15.573Z,0
2017-12-26T04:27:17.061Z,0
2017-12-26T04:28:18.455Z,0
2017-12-26T04:29:19.932Z,0
2017-12-26T04:30:21.336Z,0
2017-12-26T04:31:23.843Z,0
2017-12-26T04:32:25.662Z,0
2017-12-26T04:33:27.129Z,0
2017-12-26T04:34:28.537Z,0
2017-12-26T04:35:30.011Z,0
2017-12-26T04:36:31.409Z,0
2017-12-26T04:37:32.891Z,0
2017-12-26T04:38:34.294Z,0
2017-12-26T04:39:35.772Z,0
2017-12-26T04:40:37.173Z,0
2017-12-26T04:41:38.660Z,0
2017-12-26T04:42:40.079Z,0
2017-12-26T04:43:41.480Z,0
2017-12-26T04:44:42.972Z,0
2017-12-26T04:45:44.374Z,0
2017-12-26T04:46:45.771Z,0
2017-12-26T04:47:47.191Z,0
2017-12-26T04:48:48.606Z,0
2017-12-26T04:49:50.024Z,0
2017-12-26T04:50:51.518Z,0
2017-12-26T04:51:52.918Z,0
2017-12-26T04:52:54.320Z,0
2017-12-26T04:53:55.737Z,0
2017-12-26T04:54:57.127Z,0
2017-12-26T04:55:58.524Z,0
2017-12-26T04:56:59.952Z,0
2017-12-26T04:58:01.352Z,0
2017-12-26T04:59:02.820Z,0
2017-12-26T05:00:04.277Z,0
2017-12-26T05:01:05.671Z,0
2017-12-26T05:02:07.154Z,0
2017-12-26T05:03:08.556Z,0
2017-12-26T05:04:10.038Z,0
2017-12-26T05:05:11.430Z,0
2017-12-26T05:06:12.947Z,0
2017-12-26T05:07:14.347Z,0
2017-12-26T05:08:15.796Z,0
2017-12-26T05:09:17.195Z,0
2017-12-26T05:10:18.674Z,0
2017-12-26T05:11:20.073Z,0
2017-12-26T05:12:21.557Z,0
2017-12-26T05:13:22.966Z,0
2017-12-26T05:14:24.773Z,0
2017-12-26T05:15:26.206Z,0
2017-12-26T05:16:27.606Z,0
2017-12-26T05:17:29.007Z,0
2017-12-26T05:18:30.406Z,0
2017-12-26T05:19:31.841Z,0
2017-12-26T05:20:33.243Z,0
2017-12-26T05:21:34.722Z,0
2017-12-26T05:22:36.131Z,0
2017-12-26T05:23:37.607Z,0
2017-12-26T05:24:39.006Z,0
2017-12-26T05:25:40.486Z,0
2017-12-26T05:26:41.885Z,0
2017-12-26T05:27:43.366Z,0
2017-12-26T05:28:44.766Z,0
2017-12-26T05:29:46.254Z,0
2017-12-26T05:30:47.655Z,0
2017-12-26T05:31:49.134Z,0
2017-12-26T05:32:50.526Z,0
2017-12-26T05:33:51.925Z,0
2017-12-26T05:34:53.347Z,0
2017-12-26T05:35:54.744Z,0
2017-12-26T05:36:56.144Z,0
2017-12-26T05:37:57.568Z,0
2017-12-26T05:38:58.968Z,0
2017-12-26T05:40:00.749Z,0
2017-12-26T05:41:02.194Z,0
2017-12-26T05:42:03.614Z,0
2017-12-26T05:43:05.022Z,0
2017-12-26T05:44:06.513Z,0
2017-12-26T05:45:07.917Z,0
2017-12-26T05:46:09.327Z,0
2017-12-26T05:47:10.734Z,0
2017-12-26T05:48:12.148Z,0
2017-12-26T05:49:13.561Z,0
2017-12-26T05:50:14.970Z,0
2017-12-26T05:51:16.365Z,0
2017-12-26T05:52:17.766Z,0
2017-12-26T05:53:19.273Z,0
2017-12-26T05:54:20.672Z,0
2017-12-26T05:55:22.076Z,0
2017-12-26T05:56:23.493Z,0
2017-12-26T05:57:24.898Z,0
2017-12-26T05:58:26.380Z,0
2017-12-26T05:59:27.816Z,0
2017-12-26T06:00:29.232Z,0
2017-12-26T06:01:30.614Z,0
2017-12-26T06:02:32.031Z,0
2017-12-26T06:03:33.814Z,0
2017-12-26T06:04:35.219Z,0
2017-12-26T06:05:36.806Z,0
2017-12-26T06:06:38.216Z,0
2017-12-26T06:07:39.622Z,0
2017-12-26T06:08:41.085Z,0
2017-12-26T06:09:42.484Z,0
2017-12-26T06:10:43.973Z,0
2017-12-26T06:11:45.369Z,0
2017-12-26T06:12:46.846Z,0
2017-12-26T06:13:48.248Z,0
2017-12-26T06:14:49.726Z,0
2017-12-26T06:15:51.138Z,0
2017-12-26T06:16:52.662Z,0
2017-12-26T06:17:54.014Z,0
2017-12-26T06:18:55.491Z,0
2017-12-26T06:19:56.895Z,0
2017-12-26T06:20:58.374Z,0
2017-12-26T06:21:59.792Z,0
2017-12-26T06:23:01.250Z,0
2017-12-26T06:24:02.652Z,0
2017-12-26T06:25:04.129Z,0
2017-12-26T06:26:05.537Z,0
2017-12-26T06:27:07.013Z,0
2017-12-26T06:28:08.417Z,0
2017-12-26T06:29:09.907Z,0
2017-12-26T06:30:11.314Z,0
2017-12-26T06:31:12.773Z,0
2017-12-26T06:32:14.181Z,0
2017-12-26T06:33:15.651Z,0
2017-12-26T06:34:17.046Z,0
2017-12-26T06:35:18.551Z,0
2017-12-26T06:36:19.948Z,0
2017-12-26T06:37:21.415Z,0
2017-12-26T06:38:22.822Z,0
2017-12-26T06:39:24.220Z,0
2017-12-26T06:40:25.646Z,0
2017-12-26T06:41:27.050Z,0
2017-12-26T06:42:28.440Z,0
2017-12-26T06:43:29.955Z,0
2017-12-26T06:44:31.355Z,0
2017-12-26T06:45:32.756Z,0
2017-12-26T06:46:34.174Z,0
2017-12-26T06:47:35.588Z,0
2017-12-26T06:48:37.017Z,0
2017-12-26T06:49:38.496Z,0
2017-12-26T06:50:39.903Z,0
2017-12-26T06:51:41.291Z,0
2017-12-26T06:52:42.705Z,0
2017-12-26T06:53:44.165Z,0
2017-12-26T06:54:45.589Z,0
2017-12-26T06:55:47.033Z,0
2017-12-26T06:56:48.490Z,0
2017-12-26T06:57:49.976Z,0
2017-12-26T06:58:51.336Z,0
2017-12-26T06:59:52.742Z,0
2017-12-26T07:00:54.239Z,0
2017-12-26T07:01:55.653Z,0
2017-12-26T07:02:57.037Z,0
2017-12-26T07:03:58.464Z,0
2017-12-26T07:04:59.867Z,0
2017-12-26T07:06:01.265Z,0
2017-12-26T07:07:02.778Z,0
2017-12-26T07:08:04.182Z,0
2017-12-26T07:09:05.604Z,0
2017-12-26T07:10:07.111Z,0
2017-12-26T07:11:08.509Z,0
2017-12-26T07:12:09.916Z,0
2017-12-26T07:13:11.426Z,0
2017-12-26T07:14:12.828Z,0
2017-12-26T07:15:14.227Z,0
2017-12-26T07:16:15.741Z,0
2017-12-26T07:17:17.145Z,0
2017-12-26T07:18:18.539Z,4
2017-12-26T07:19:19.958Z,4
2017-12-26T07:20:21.370Z,0
2017-12-26T07:21:22.840Z,4
2017-12-26T07:22:24.245Z,0
2017-12-26T07:23:25.720Z,4
2017-12-26T07:24:27.124Z,0
2017-12-26T07:25:28.533Z,4
2017-12-26T07:26:30.074Z,4
2017-12-26T07:27:31.468Z,4
2017-12-26T07:28:32.873Z,4
2017-12-26T07:29:34.371Z,8
2017-12-26T07:30:35.770Z,8
2017-12-26T07:31:37.242Z,8
2017-12-26T07:32:38.643Z,12
2017-12-26T07:33:40.125Z,8
2017-12-26T07:34:41.523Z,12
2017-12-26T07:35:43.022Z,12
2017-12-26T07:36:44.426Z,12
2017-12-26T07:37:45.927Z,12
2017-12-26T07:38:47.327Z,16
2017-12-26T07:39:48.770Z,12
2017-12-26T07:40:50.179Z,16
2017-12-26T07:41:51.647Z,32
2017-12-26T07:42:53.053Z,32
2017-12-26T07:43:54.458Z,40
2017-12-26T07:44:55.969Z,44
2017-12-26T07:45:57.372Z,44
2017-12-26T07:46:58.772Z,60
2017-12-26T07:48:00.188Z,44
2017-12-26T07:49:01.612Z,52
2017-12-26T07:50:03.011Z,48
2017-12-26T07:51:04.508Z,40
2017-12-26T07:52:05.963Z,52
2017-12-26T07:53:07.793Z,48
2017-12-26T07:54:09.239Z,48
2017-12-26T07:55:10.642Z,40
2017-12-26T07:56:12.039Z,32
2017-12-26T07:57:13.463Z,28
2017-12-26T07:58:14.860Z,48
2017-12-26T07:59:16.263Z,60
2017-12-26T08:00:17.676Z,52
2017-12-26T08:01:19.097Z,52
2017-12-26T08:02:20.561Z,56
2017-12-26T08:03:21.957Z,52
2017-12-26T08:04:23.440Z,48
2017-12-26T08:05:24.839Z,56
2017-12-26T08:06:26.253Z,68
2017-12-26T08:07:27.760Z,84
2017-12-26T08:08:29.159Z,64
2017-12-26T08:09:30.559Z,48
2017-12-26T08:10:31.978Z,56
2017-12-26T08:11:33.380Z,68
2017-12-26T08:12:34.863Z,68
2017-12-26T08:13:36.258Z,64
2017-12-26T08:14:37.740Z,56
2017-12-26T08:15:39.141Z,52
2017-12-26T08:16:40.541Z,56
2017-12-26T08:17:41.982Z,56
2017-12-26T08:18:43.381Z,52
2017-12-26T08:19:44.782Z,68
2017-12-26T08:20:46.286Z,72
2017-12-26T08:21:47.679Z,84
2017-12-26T08:22:49.079Z,104
2017-12-26T08:23:50.538Z,76
2017-12-26T08:24:51.901Z,120
2017-12-26T08:25:53.302Z,116
2017-12-26T08:26:54.704Z,96
2017-12-26T08:27:56.164Z,140
2017-12-26T08:28:57.569Z,156
2017-12-26T08:29:59.047Z,152
2017-12-26T08:31:00.443Z,144
2017-12-26T08:32:01.922Z,128
2017-12-26T08:33:03.325Z,160
2017-12-26T08:34:04.805Z,160
2017-12-26T08:35:06.256Z,168
2017-12-26T08:36:07.658Z,184
2017-12-26T08:37:09.124Z,168
2017-12-26T08:38:10.528Z,144
2017-12-26T08:39:11.932Z,164
2017-12-26T08:40:13.445Z,196
2017-12-26T08:41:14.850Z,208
2017-12-26T08:42:16.325Z,172
2017-12-26T08:43:17.730Z,204
2017-12-26T08:44:19.232Z,208
2017-12-26T08:45:20.634Z,240
2017-12-26T08:46:22.060Z,264
2017-12-26T08:47:23.528Z,312
2017-12-26T08:48:24.933Z,296
2017-12-26T08:49:26.337Z,344
2017-12-26T08:50:27.849Z,344
2017-12-26T08:51:29.252Z,308
2017-12-26T08:52:30.678Z,304
2017-12-26T08:53:32.069Z,300
2017-12-26T08:54:33.475Z,312
2017-12-26T08:55:34.877Z,308
2017-12-26T08:56:36.390Z,320
2017-12-26T08:57:37.804Z,408
2017-12-26T08:58:39.220Z,372
2017-12-26T08:59:40.705Z,432
2017-12-26T09:00:42.113Z,436
2017-12-26T09:01:43.519Z,448
2017-12-26T09:02:45.032Z,452
2017-12-26T09:03:46.436Z,428
2017-12-26T09:04:47.839Z,520
2017-12-26T09:05:49.233Z,588
2017-12-26T09:06:50.651Z,620
2017-12-26T09:07:52.128Z,580
2017-12-26T09:08:53.534Z,616
2017-12-26T09:09:54.939Z,588
2017-12-26T09:10:56.452Z,572
2017-12-26T09:11:57.878Z,596
2017-12-26T09:12:59.269Z,648
2017-12-26T09:14:00.770Z,668
2017-12-26T09:15:02.177Z,628
2017-12-26T09:16:03.582Z,644
2017-12-26T09:17:05.094Z,656
2017-12-26T09:18:06.500Z,724
2017-12-26T09:19:07.900Z,832
2017-12-26T09:20:09.313Z,844
2017-12-26T09:21:10.717Z,796
2017-12-26T09:22:12.120Z,760
2017-12-26T09:23:13.634Z,780
2017-12-26T09:24:15.038Z,772
2017-12-26T09:25:16.512Z,740
2017-12-26T09:26:17.915Z,688
2017-12-26T09:27:19.397Z,708
2017-12-26T09:28:20.799Z,720
2017-12-26T09:29:22.277Z,772
2017-12-26T09:30:23.682Z,916
2017-12-26T09:31:25.158Z,1112
2017-12-26T09:32:26.594Z,1516
2017-12-26T09:33:28.043Z,1832
2017-12-26T09:34:29.444Z,1884
2017-12-26T09:35:30.925Z,1720
2017-12-26T09:36:32.330Z,1600
2017-12-26T09:37:33.802Z,1728
2017-12-26T09:38:35.208Z,1828
2017-12-26T09:39:36.682Z,1632
2017-12-26T09:40:38.100Z,1524
2017-12-26T09:41:39.564Z,1740
2017-12-26T09:42:40.967Z,2164
2017-12-26T09:43:42.443Z,2364
2017-12-26T09:44:43.849Z,2336
2017-12-26T09:45:45.325Z,2136
2017-12-26T09:46:46.734Z,1884
2017-12-26T09:47:48.137Z,1864
2017-12-26T09:48:49.650Z,1868
2017-12-26T09:49:51.053Z,1792
2017-12-26T09:50:52.457Z,1656
2017-12-26T09:51:53.967Z,1516
2017-12-26T09:52:55.372Z,1348
2017-12-26T09:53:56.849Z,1172
2017-12-26T09:54:58.260Z,1092
2017-12-26T09:55:59.728Z,1060
2017-12-26T09:57:01.137Z,1076
2017-12-26T09:58:02.534Z,1100
2017-12-26T09:59:04.057Z,1076
2017-12-26T10:00:05.499Z,1000
2017-12-26T10:01:06.878Z,1108
2017-12-26T10:02:08.379Z,1396
2017-12-26T10:03:09.783Z,1660
2017-12-26T10:04:11.185Z,1624
2017-12-26T10:05:12.693Z,1620
2017-12-26T10:06:14.102Z,1848
2017-12-26T10:07:15.506Z,2016
2017-12-26T10:08:17.017Z,2092
2017-12-26T10:09:18.419Z,2192
2017-12-26T10:10:19.893Z,2116
2017-12-26T10:11:21.258Z,2084
2017-12-26T10:12:22.773Z,1992
2017-12-26T10:13:24.181Z,2000
2017-12-26T10:14:25.654Z,1988
2017-12-26T10:15:27.062Z,1936
2017-12-26T10:16:28.544Z,2104
2017-12-26T10:17:29.950Z,2504
2017-12-26T10:18:31.421Z,2676
2017-12-26T10:19:33.745Z,2396
2017-12-26T10:20:35.761Z,2020
2017-12-26T10:21:37.724Z,1836
2017-12-26T10:22:40.154Z,2320
2017-12-26T10:23:41.626Z,2604
2017-12-26T10:24:42.993Z,2716
2017-12-26T10:25:44.397Z,2484
2017-12-26T10:26:45.911Z,2524
2017-12-26T10:27:47.317Z,2528
2017-12-26T10:28:48.799Z,2260
2017-12-26T10:29:50.198Z,2360
2017-12-26T10:30:52.359Z,2760
2017-12-26T10:31:53.772Z,3444
2017-12-26T10:32:55.171Z,3800
2017-12-26T10:33:56.609Z,4236
2017-12-26T10:34:58.399Z,5024
2017-12-26T10:35:59.809Z,5252
2017-12-26T10:37:01.615Z,3684
2017-12-26T10:38:03.025Z,3720
2017-12-26T10:39:04.432Z,3780
2017-12-26T10:40:05.867Z,3944
2017-12-26T10:41:07.278Z,3376
2017-12-26T10:42:08.710Z,3048
2017-12-26T10:43:10.187Z,3040
2017-12-26T10:44:11.595Z,3000
2017-12-26T10:45:13.001Z,2876
2017-12-26T10:46:14.516Z,2592
2017-12-26T10:47:15.918Z,2516
2017-12-26T10:48:17.323Z,2604
2017-12-26T10:49:18.829Z,2632
2017-12-26T10:50:20.238Z,2816
2017-12-26T10:51:21.648Z,3084
2017-12-26T10:52:23.145Z,3244
2017-12-26T10:53:24.555Z,3280
2017-12-26T10:54:26.032Z,2676
2017-12-26T10:55:27.504Z,2816
2017-12-26T10:56:29.015Z,2868
2017-12-26T10:57:30.423Z,2888
2017-12-26T10:58:31.940Z,2556
2017-12-26T10:59:33.351Z,2764
2017-12-26T11:00:34.785Z,2860
2017-12-26T11:01:36.188Z,3200
2017-12-26T11:02:37.593Z,3320
2017-12-26T11:03:39.094Z,3348
2017-12-26T11:04:40.509Z,2516
2017-12-26T11:05:41.916Z,2376
2017-12-26T11:06:43.413Z,2648
2017-12-26T11:07:44.826Z,2512
2017-12-26T11:08:46.233Z,2584
2017-12-26T11:09:47.740Z,2472
2017-12-26T11:10:49.145Z,2788
2017-12-26T11:11:50.554Z,2700
2017-12-26T11:12:52.061Z,2596
2017-12-26T11:13:53.470Z,3156
2017-12-26T11:14:54.942Z,3012
2017-12-26T11:15:56.392Z,2904
2017-12-26T11:16:57.821Z,3304
2017-12-26T11:17:59.228Z,2188
2017-12-26T11:19:00.640Z,2880
2017-12-26T11:20:02.140Z,2996
2017-12-26T11:21:03.547Z,3156
2017-12-26T11:22:04.954Z,3120
2017-12-26T11:23:06.461Z,2840
2017-12-26T11:24:07.868Z,2368
2017-12-26T11:25:09.359Z,2208
2017-12-26T11:26:10.767Z,1904
2017-12-26T11:27:12.223Z,1496
2017-12-26T11:28:13.629Z,1444
2017-12-26T11:29:15.035Z,1696
2017-12-26T11:30:16.473Z,1600
2017-12-26T11:31:17.882Z,2108
2017-12-26T11:32:19.325Z,1872
2017-12-26T11:33:20.732Z,1448
2017-12-26T11:34:22.207Z,1324
2017-12-26T11:35:23.603Z,1732
2017-12-26T11:36:25.088Z,1944
2017-12-26T11:37:26.492Z,2724
2017-12-26T11:38:27.970Z,2860
2017-12-26T11:39:29.376Z,1992
2017-12-26T11:40:30.861Z,2380
2017-12-26T11:41:32.263Z,1980
2017-12-26T11:42:33.736Z,2628
2017-12-26T11:43:35.143Z,2536
2017-12-26T11:44:36.587Z,3336
2017-12-26T11:45:38.050Z,2868
2017-12-26T11:46:39.461Z,2568
2017-12-26T11:47:41.404Z,1852
2017-12-26T11:48:42.890Z,2816
2017-12-26T11:49:44.309Z,2564
2017-12-26T11:50:45.767Z,2736
2017-12-26T11:51:47.203Z,2408
2017-12-26T11:52:48.650Z,2092
2017-12-26T11:53:50.050Z,1868
2017-12-26T11:54:51.530Z,1236
2017-12-26T11:55:52.936Z,1648
2017-12-26T11:56:54.413Z,1680
2017-12-26T11:57:55.822Z,2216
2017-12-26T11:58:57.271Z,2960
2017-12-26T11:59:58.732Z,2468
2017-12-26T12:01:00.138Z,2432
2017-12-26T12:02:01.546Z,2200
2017-12-26T12:03:03.050Z,1328
2017-12-26T12:04:04.480Z,1016
2017-12-26T12:05:05.860Z,1316
2017-12-26T12:06:07.368Z,2444
2017-12-26T12:07:08.779Z,3024
2017-12-26T12:08:10.182Z,2188
2017-12-26T12:09:11.696Z,1684
2017-12-26T12:10:13.106Z,2124
2017-12-26T12:11:14.574Z,1448
2017-12-26T12:12:15.993Z,1780
2017-12-26T12:13:17.432Z,1684
2017-12-26T12:14:18.919Z,2460
2017-12-26T12:15:20.329Z,1816
2017-12-26T12:16:21.737Z,1832
2017-12-26T12:17:23.213Z,1896
2017-12-26T12:18:24.625Z,2220
2017-12-26T12:19:26.046Z,2544
2017-12-26T12:20:27.538Z,3028
2017-12-26T12:21:28.952Z,2908
2017-12-26T12:22:30.416Z,2468
2017-12-26T12:23:31.820Z,2668
2017-12-26T12:24:33.227Z,1716
2017-12-26T12:25:34.885Z,2032
2017-12-26T12:26:36.350Z,1632
2017-12-26T12:27:37.772Z,1336
2017-12-26T12:28:39.260Z,2224
2017-12-26T12:29:40.670Z,2284
2017-12-26T12:30:42.143Z,2120
2017-12-26T12:31:43.548Z,2880
2017-12-26T12:32:44.970Z,2956
2017-12-26T12:33:46.474Z,1912
2017-12-26T12:34:47.908Z,1724
2017-12-26T12:35:49.759Z,1856
2017-12-26T12:36:51.198Z,2580
2017-12-26T12:37:52.655Z,3056
2017-12-26T12:38:54.059Z,1728
2017-12-26T12:39:55.514Z,1704
2017-12-26T12:40:57.064Z,2216
2017-12-26T12:41:58.506Z,1944
2017-12-26T12:42:59.927Z,1896
2017-12-26T12:44:01.325Z,1632
2017-12-26T12:45:02.882Z,2084
2017-12-26T12:46:04.675Z,1792
2017-12-26T12:47:06.078Z,2384
2017-12-26T12:48:07.483Z,1732
2017-12-26T12:49:08.995Z,1324
2017-12-26T12:50:10.393Z,1852
2017-12-26T12:51:11.879Z,1660
2017-12-26T12:52:13.300Z,1548
2017-12-26T12:53:14.755Z,1340
2017-12-26T12:54:16.160Z,1212
2017-12-26T12:55:17.642Z,2048
2017-12-26T12:56:19.093Z,1548
2017-12-26T12:57:20.520Z,1516
2017-12-26T12:58:21.925Z,1972
2017-12-26T12:59:23.397Z,1676
2017-12-26T13:00:24.800Z,1164
2017-12-26T13:01:26.670Z,1240
2017-12-26T13:02:28.483Z,912
2017-12-26T13:03:29.879Z,916
2017-12-26T13:04:31.297Z,844
2017-12-26T13:05:32.751Z,804
2017-12-26T13:06:34.156Z,772
2017-12-26T13:07:35.636Z,1376
2017-12-26T13:08:37.035Z,1336
2017-12-26T13:09:38.513Z,920
2017-12-26T13:10:39.916Z,664
2017-12-26T13:11:42.537Z,508
2017-12-26T13:12:43.893Z,620
2017-12-26T13:13:45.401Z,872
2017-12-26T13:14:46.805Z,804
2017-12-26T13:15:48.284Z,916
2017-12-26T13:16:49.686Z,1376
2017-12-26T13:17:51.162Z,908
2017-12-26T13:18:52.564Z,796
2017-12-26T13:19:53.965Z,688
2017-12-26T13:20:55.484Z,1332
2017-12-26T13:21:56.892Z,1508
2017-12-26T13:22:58.313Z,1444
2017-12-26T13:23:59.807Z,1500
2017-12-26T13:25:01.218Z,1312
2017-12-26T13:26:02.686Z,1240
2017-12-26T13:27:04.093Z,1288
2017-12-26T13:28:05.568Z,1060
2017-12-26T13:29:06.975Z,1028
2017-12-26T13:30:08.381Z,792
2017-12-26T13:31:09.887Z,780
2017-12-26T13:32:11.292Z,1164
2017-12-26T13:33:12.697Z,1112
2017-12-26T13:34:14.209Z,1040
2017-12-26T13:35:15.616Z,1184
2017-12-26T13:36:17.022Z,1324
2017-12-26T13:37:18.534Z,1316
2017-12-26T13:38:19.956Z,1116
2017-12-26T13:39:21.360Z,992
2017-12-26T13:40:22.852Z,1208
2017-12-26T13:41:24.256Z,1164
2017-12-26T13:42:25.665Z,1364
2017-12-26T13:43:27.172Z,1248
2017-12-26T13:44:28.588Z,968
2017-12-26T13:45:29.997Z,684
2017-12-26T13:46:31.493Z,744
2017-12-26T13:47:32.894Z,968
2017-12-26T13:48:34.297Z,836
2017-12-26T13:49:35.712Z,740
2017-12-26T13:50:37.115Z,680
2017-12-26T13:51:38.594Z,576
2017-12-26T13:52:40.001Z,624
2017-12-26T13:53:41.472Z,588
2017-12-26T13:54:42.877Z,520
2017-12-26T13:55:44.377Z,736
2017-12-26T13:56:45.784Z,712
2017-12-26T13:57:47.234Z,748
2017-12-26T13:58:48.636Z,744
2017-12-26T13:59:50.037Z,740
2017-12-26T14:00:51.453Z,740
2017-12-26T14:01:52.890Z,692
2017-12-26T14:02:54.256Z,544
2017-12-26T14:03:55.673Z,604
2017-12-26T14:04:57.080Z,644
2017-12-26T14:05:58.484Z,788
2017-12-26T14:06:59.996Z,688
2017-12-26T14:08:01.389Z,556
2017-12-26T14:09:02.875Z,588
2017-12-26T14:10:04.275Z,652
2017-12-26T14:11:05.679Z,532
2017-12-26T14:12:07.199Z,468
2017-12-26T14:13:09.076Z,400
2017-12-26T14:14:11.259Z,512
2017-12-26T14:15:12.842Z,632
2017-12-26T14:16:14.246Z,656
2017-12-26T14:17:15.648Z,608
2017-12-26T14:18:17.069Z,552
2017-12-26T14:19:18.475Z,540
2017-12-26T14:20:20.270Z,540
2017-12-26T14:21:21.695Z,612
2017-12-26T14:22:23.108Z,564
2017-12-26T14:23:24.506Z,512
2017-12-26T14:24:26.018Z,488
2017-12-26T14:25:27.431Z,436
2017-12-26T14:26:28.876Z,440
2017-12-26T14:27:30.338Z,460
2017-12-26T14:28:31.740Z,440
2017-12-26T14:29:33.134Z,512
2017-12-26T14:30:34.589Z,576